createdAt,value
2017-11-07T00:00:00.436Z,5.70
2017-11-07T00:02:33.794Z,5.70
2017-11-07T00:05:07.028Z,5.70
2017-11-07T00:07:40.329Z,5.70
2017-11-07T00:10:13.558Z,5.70
2017-11-07T00:12:46.842Z,5.70
2017-11-07T00:15:20.953Z,5.70
2017-11-07T00:17:53.447Z,5.70
2017-11-07T00:20:27.095Z,5.70
2017-11-07T00:22:59.554Z,5.70
2017-11-07T00:25:33.643Z,5.70
2017-11-07T00:28:06.209Z,5.70
2017-11-07T00:30:39.715Z,5.80
2017-11-07T00:33:12.931Z,5.80
2017-11-07T00:35:46.222Z,5.80
2017-11-07T00:38:20.198Z,5.80
2017-11-07T00:40:52.821Z,5.70
2017-11-07T00:43:26.158Z,5.80
2017-11-07T00:45:59.593Z,5.80
2017-11-07T00:48:32.717Z,5.80
2017-11-07T00:51:06.043Z,5.80
2017-11-07T00:53:39.240Z,5.80
2017-11-07T00:56:12.656Z,5.80
2017-11-07T00:58:44.989Z,5.70
2017-11-07T01:01:18.458Z,5.80
2017-11-07T01:03:51.469Z,5.80
2017-11-07T01:06:23.945Z,5.80
2017-11-07T01:08:56.446Z,5.80
2017-11-07T01:11:29.882Z,5.80
2017-11-07T01:14:04.030Z,5.80
2017-11-07T01:16:36.584Z,5.90
2017-11-07T01:19:09.898Z,5.90
2017-11-07T01:21:43.042Z,5.90
2017-11-07T01:24:16.224Z,5.90
2017-11-07T01:26:49.403Z,5.80
2017-11-07T01:29:22.583Z,5.80
2017-11-07T01:31:56.617Z,5.90
2017-11-07T01:34:29.310Z,5.90
2017-11-07T01:37:02.685Z,5.90
2017-11-07T01:39:35.160Z,5.90
2017-11-07T01:42:07.523Z,5.90
2017-11-07T01:44:39.903Z,5.90
2017-11-07T01:47:13.199Z,5.90
2017-11-07T01:49:46.431Z,5.90
2017-11-07T01:52:20.672Z,5.90
2017-11-07T01:54:53.063Z,5.90
2017-11-07T01:57:25.578Z,5.90
2017-11-07T01:59:58.769Z,5.90
2017-11-07T02:02:32.058Z,5.90
2017-11-07T02:05:05.274Z,5.90
2017-11-07T02:07:39.714Z,5.90
2017-11-07T02:10:13.077Z,5.90
2017-11-07T02:12:45.607Z,5.90
2017-11-07T02:15:18.885Z,5.90
2017-11-07T02:17:53.019Z,5.90
2017-11-07T02:20:25.502Z,5.90
2017-11-07T02:22:59.545Z,5.80
2017-11-07T02:25:32.910Z,5.80
2017-11-07T02:28:06.024Z,5.80
2017-11-07T02:30:39.736Z,5.80
2017-11-07T02:33:12.546Z,5.80
2017-11-07T02:35:45.838Z,5.80
2017-11-07T02:38:19.340Z,5.80
2017-11-07T02:40:53.515Z,5.80
2017-11-07T02:43:25.966Z,5.80
2017-11-07T02:45:59.230Z,5.80
2017-11-07T02:48:32.615Z,5.80
2017-11-07T02:51:05.745Z,5.80
2017-11-07T02:53:39.811Z,5.90
2017-11-07T02:56:13.212Z,5.90
2017-11-07T02:58:45.798Z,5.90
2017-11-07T03:01:19.101Z,5.90
2017-11-07T03:03:52.482Z,6.00
2017-11-07T03:06:25.659Z,6.00
2017-11-07T03:08:59.784Z,6.00
2017-11-07T03:11:32.337Z,6.00
2017-11-07T03:14:04.891Z,6.00
2017-11-07T03:16:37.986Z,6.00
2017-11-07T03:19:10.401Z,6.00
2017-11-07T03:21:43.497Z,6.00
2017-11-07T03:24:16.271Z,6.00
2017-11-07T03:26:49.428Z,6.10
2017-11-07T03:29:21.999Z,6.10
2017-11-07T03:31:55.158Z,6.10
2017-11-07T03:34:27.648Z,6.00
2017-11-07T03:37:00.884Z,6.00
2017-11-07T03:39:34.246Z,6.10
2017-11-07T03:42:06.686Z,6.10
2017-11-07T03:44:40.292Z,6.10
2017-11-07T03:47:13.325Z,6.10
2017-11-07T03:49:46.551Z,6.10
2017-11-07T03:52:19.823Z,6.10
2017-11-07T03:54:53.938Z,6.10
2017-11-07T03:57:27.356Z,6.10
2017-11-07T03:59:59.809Z,6.20
2017-11-07T04:02:33.140Z,6.10
2017-11-07T04:05:05.518Z,6.10
2017-11-07T04:07:38.690Z,6.10
2017-11-07T04:10:11.232Z,6.10
2017-11-07T04:12:43.649Z,6.10
2017-11-07T04:15:16.032Z,6.10
2017-11-07T04:17:48.473Z,6.00
2017-11-07T04:20:20.886Z,6.00
2017-11-07T04:22:54.030Z,6.00
2017-11-07T04:25:27.393Z,6.00
2017-11-07T04:28:00.646Z,6.00
2017-11-07T04:30:33.975Z,6.10
2017-11-07T04:33:07.225Z,6.10
2017-11-07T04:35:40.568Z,6.00
2017-11-07T04:38:13.845Z,6.10
2017-11-07T04:40:47.207Z,6.10
2017-11-07T04:43:20.411Z,6.10
2017-11-07T04:45:54.387Z,6.10
2017-11-07T04:48:27.080Z,6.10
2017-11-07T04:51:01.211Z,6.00
2017-11-07T04:53:33.727Z,6.00
2017-11-07T04:56:07.019Z,6.00
2017-11-07T04:58:40.294Z,5.90
2017-11-07T05:01:13.830Z,5.90
2017-11-07T05:03:47.738Z,6.00
2017-11-07T05:06:21.063Z,6.00
2017-11-07T05:08:53.526Z,6.00
2017-11-07T05:11:26.792Z,5.90
2017-11-07T05:14:00.105Z,6.00
2017-11-07T05:16:33.402Z,6.00
2017-11-07T05:19:06.665Z,6.00
2017-11-07T05:21:40.004Z,6.00
2017-11-07T05:24:13.246Z,5.90
2017-11-07T05:26:47.281Z,6.00
2017-11-07T05:29:19.846Z,5.90
2017-11-07T05:31:52.314Z,6.00
2017-11-07T05:34:26.297Z,6.00
2017-11-07T05:36:58.778Z,6.00
2017-11-07T05:39:32.033Z,6.00
2017-11-07T05:42:05.396Z,6.00
2017-11-07T05:44:37.884Z,6.00
2017-11-07T05:47:11.167Z,6.00
2017-11-07T05:49:44.393Z,5.90
2017-11-07T05:52:17.637Z,6.00
2017-11-07T05:54:50.964Z,5.90
2017-11-07T05:57:24.316Z,6.00
2017-11-07T05:59:58.367Z,6.00
2017-11-07T06:02:31.833Z,6.00
2017-11-07T06:05:04.398Z,6.00
2017-11-07T06:07:38.396Z,6.00
2017-11-07T06:10:10.933Z,6.00
2017-11-07T06:12:44.216Z,6.00
2017-11-07T06:15:18.243Z,5.90
2017-11-07T06:17:50.854Z,5.90
2017-11-07T06:20:23.998Z,5.90
2017-11-07T06:22:58.108Z,5.90
2017-11-07T06:25:30.647Z,5.90
2017-11-07T06:28:03.358Z,5.90
2017-11-07T06:30:36.582Z,5.90
2017-11-07T06:33:09.861Z,5.80
2017-11-07T06:35:43.129Z,5.80
2017-11-07T06:38:16.436Z,5.80
2017-11-07T06:40:49.588Z,5.80
2017-11-07T06:43:22.932Z,5.80
2017-11-07T06:45:55.441Z,5.80
2017-11-07T06:48:29.434Z,5.80
2017-11-07T06:51:01.907Z,5.80
2017-11-07T06:53:35.305Z,5.80
2017-11-07T06:56:07.745Z,5.80
2017-11-07T06:58:40.187Z,5.80
2017-11-07T07:01:12.623Z,5.80
2017-11-07T07:03:46.507Z,5.80
2017-11-07T07:06:18.992Z,5.80
2017-11-07T07:08:52.364Z,5.80
2017-11-07T07:11:25.666Z,5.90
2017-11-07T07:13:59.044Z,5.90
2017-11-07T07:16:32.252Z,5.90
2017-11-07T07:19:05.449Z,5.90
2017-11-07T07:21:37.942Z,5.90
2017-11-07T07:24:11.287Z,5.90
2017-11-07T07:26:44.560Z,5.90
2017-11-07T07:29:17.831Z,5.90
2017-11-07T07:31:51.127Z,5.90
2017-11-07T07:34:24.484Z,5.90
2017-11-07T07:36:57.702Z,5.90
2017-11-07T07:39:30.966Z,5.90
2017-11-07T07:42:04.101Z,5.90
2017-11-07T07:44:37.401Z,5.90
2017-11-07T07:47:10.533Z,6.00
2017-11-07T07:49:43.274Z,6.00
2017-11-07T07:52:16.590Z,6.00
2017-11-07T07:54:50.683Z,6.00
2017-11-07T07:57:23.204Z,6.00
2017-11-07T08:00:02.802Z,6.10
2017-11-07T08:02:35.870Z,6.10
2017-11-07T08:05:09.183Z,6.10
2017-11-07T08:07:41.854Z,6.10
2017-11-07T08:10:15.277Z,6.20
2017-11-07T08:12:48.540Z,6.20
2017-11-07T08:15:22.638Z,6.20
2017-11-07T08:17:55.092Z,6.20
2017-11-07T08:20:27.647Z,6.20
2017-11-07T08:23:01.643Z,6.20
2017-11-07T08:25:34.232Z,6.20
2017-11-07T08:28:07.409Z,6.20
2017-11-07T08:30:40.628Z,6.30
2017-11-07T08:33:14.604Z,6.20
2017-11-07T08:35:47.137Z,6.20
2017-11-07T08:38:21.293Z,6.30
2017-11-07T08:40:53.743Z,6.30
2017-11-07T08:43:26.984Z,6.30
2017-11-07T08:46:00.307Z,6.30
2017-11-07T08:48:33.702Z,6.30
2017-11-07T08:51:06.898Z,6.30
2017-11-07T08:53:40.130Z,6.30
2017-11-07T08:56:14.379Z,6.30
2017-11-07T08:58:47.829Z,6.30
2017-11-07T09:01:21.760Z,6.20
2017-11-07T09:03:54.267Z,6.30
2017-11-07T09:06:26.761Z,6.20
2017-11-07T09:08:59.923Z,6.30
2017-11-07T09:11:32.518Z,6.30
2017-11-07T09:14:05.763Z,6.20
2017-11-07T09:16:39.119Z,6.30
2017-11-07T09:19:14.010Z,6.20
2017-11-07T09:21:46.901Z,6.20
2017-11-07T09:24:21.023Z,6.30
2017-11-07T09:26:53.591Z,6.30
2017-11-07T09:29:25.996Z,6.30
2017-11-07T09:31:58.415Z,6.30
2017-11-07T09:34:32.500Z,6.30
2017-11-07T09:37:05.261Z,6.30
2017-11-07T09:39:38.381Z,6.30
2017-11-07T09:42:10.999Z,6.30
2017-11-07T09:44:44.376Z,6.30
2017-11-07T09:47:17.660Z,6.30
2017-11-07T09:49:50.030Z,6.30
2017-11-07T09:52:24.229Z,6.30
2017-11-07T09:54:56.670Z,6.30
2017-11-07T09:57:29.904Z,6.30
2017-11-07T10:00:03.257Z,6.30
2017-11-07T10:02:37.275Z,6.30
2017-11-07T10:05:10.004Z,6.30
2017-11-07T10:07:43.277Z,6.30
2017-11-07T10:10:16.498Z,6.30
2017-11-07T10:12:49.807Z,6.30
2017-11-07T10:15:22.163Z,6.30
2017-11-07T10:17:55.485Z,6.30
2017-11-07T10:20:28.749Z,6.30
2017-11-07T10:23:02.882Z,6.30
2017-11-07T10:25:36.133Z,6.30
2017-11-07T10:28:08.726Z,6.30
2017-11-07T10:30:42.029Z,6.30
2017-11-07T10:33:15.313Z,6.30
2017-11-07T10:35:48.530Z,6.40
2017-11-07T10:38:21.218Z,6.40
2017-11-07T10:40:54.502Z,6.40
2017-11-07T10:43:27.623Z,6.40
2017-11-07T10:46:00.810Z,6.50
2017-11-07T10:48:34.038Z,6.50
2017-11-07T10:51:07.184Z,6.40
2017-11-07T10:53:40.564Z,6.50
2017-11-07T10:56:13.782Z,6.50
2017-11-07T10:58:46.277Z,6.50
2017-11-07T11:01:19.381Z,6.50
2017-11-07T11:03:52.712Z,6.50
2017-11-07T11:06:26.835Z,6.50
2017-11-07T11:08:59.481Z,6.50
2017-11-07T11:11:32.760Z,6.50
2017-11-07T11:14:05.858Z,6.50
2017-11-07T11:16:38.339Z,6.50
2017-11-07T11:19:11.665Z,6.50
2017-11-07T11:21:44.114Z,6.50
2017-11-07T11:24:17.407Z,6.50
2017-11-07T11:26:49.761Z,6.50
2017-11-07T11:29:22.878Z,6.50
2017-11-07T11:31:55.403Z,6.50
2017-11-07T11:34:28.736Z,6.50
2017-11-07T11:37:01.117Z,6.50
2017-11-07T11:39:33.617Z,6.60
2017-11-07T11:42:06.776Z,6.60
2017-11-07T11:44:39.210Z,6.60
2017-11-07T11:47:12.374Z,6.60
2017-11-07T11:49:44.898Z,6.60
2017-11-07T11:52:18.927Z,6.70
2017-11-07T11:54:51.623Z,6.70
2017-11-07T11:57:24.048Z,6.60
2017-11-07T11:59:57.350Z,6.60
2017-11-07T12:02:30.749Z,6.60
2017-11-07T12:05:03.456Z,6.70
2017-11-07T12:07:37.379Z,6.70
2017-11-07T12:10:09.929Z,6.60
2017-11-07T12:12:43.946Z,6.70
2017-11-07T12:15:16.587Z,6.70
2017-11-07T12:17:50.754Z,6.70
2017-11-07T12:20:23.216Z,6.70
2017-11-07T12:22:57.196Z,6.70
2017-11-07T12:25:30.372Z,6.80
2017-11-07T12:28:02.981Z,6.80
2017-11-07T12:30:36.305Z,6.80
2017-11-07T12:33:09.605Z,6.80
2017-11-07T12:35:43.071Z,6.90
2017-11-07T12:38:16.344Z,6.90
2017-11-07T12:40:49.691Z,6.90
2017-11-07T12:43:22.953Z,6.90
2017-11-07T12:45:56.243Z,6.90
2017-11-07T12:48:29.496Z,6.90
2017-11-07T12:54:08.958Z,6.90
2017-11-07T12:56:41.553Z,6.90
2017-11-07T12:59:13.921Z,7.00
2017-11-07T13:01:46.412Z,7.00
2017-11-07T13:04:26.327Z,7.00
2017-11-07T13:06:59.634Z,7.00
2017-11-07T13:09:32.018Z,7.00
2017-11-07T13:12:04.599Z,7.00
2017-11-07T13:14:37.088Z,7.00
2017-11-07T13:17:09.728Z,7.10
2017-11-07T13:19:42.995Z,7.00
2017-11-07T13:22:15.709Z,7.00
2017-11-07T13:24:49.066Z,7.00
2017-11-07T13:27:23.280Z,7.00
2017-11-07T13:29:55.851Z,7.00
2017-11-07T13:32:28.297Z,7.00
2017-11-07T13:35:01.622Z,7.00
2017-11-07T13:37:33.978Z,7.00
2017-11-07T13:40:06.603Z,7.00
2017-11-07T13:42:39.198Z,7.00
2017-11-07T13:45:12.509Z,7.00
2017-11-07T13:47:45.712Z,7.00
2017-11-07T13:50:19.002Z,7.00
2017-11-07T13:52:52.381Z,7.00
2017-11-07T13:55:26.400Z,7.10
2017-11-07T13:57:59.242Z,7.10
2017-11-07T14:00:33.397Z,7.10
2017-11-07T14:03:06.314Z,7.10
2017-11-07T14:05:39.700Z,7.10
2017-11-07T14:08:13.128Z,7.10
2017-11-07T14:10:46.388Z,7.10
2017-11-07T14:13:19.043Z,7.10
2017-11-07T14:15:51.560Z,7.10
2017-11-07T14:18:24.703Z,7.10
2017-11-07T14:20:57.477Z,7.10
2017-11-07T14:23:30.894Z,7.10
2017-11-07T14:26:03.430Z,7.20
2017-11-07T14:28:36.674Z,7.20
2017-11-07T14:31:09.443Z,7.20
2017-11-07T14:33:42.025Z,7.20
2017-11-07T14:36:14.727Z,7.20
2017-11-07T14:38:48.061Z,7.20
2017-11-07T14:41:20.693Z,7.20
2017-11-07T14:43:53.287Z,7.20
2017-11-07T14:46:26.715Z,7.20
2017-11-07T14:49:00.009Z,7.10
2017-11-07T14:51:32.638Z,7.10
2017-11-07T14:54:05.063Z,7.10
2017-11-07T14:56:38.478Z,7.10
2017-11-07T14:59:12.073Z,7.20
2017-11-07T15:01:44.742Z,7.10
2017-11-07T15:04:18.167Z,7.10
2017-11-07T15:06:50.671Z,7.20
2017-11-07T15:09:24.098Z,7.20
2017-11-07T15:11:56.611Z,7.10
2017-11-07T15:14:30.770Z,7.20
2017-11-07T15:17:03.412Z,7.20
2017-11-07T15:19:35.953Z,7.20
2017-11-07T15:22:08.353Z,7.20
2017-11-07T15:24:40.802Z,7.20
2017-11-07T15:27:13.355Z,7.20
2017-11-07T15:29:46.486Z,7.30
2017-11-07T15:32:26.515Z,7.30
2017-11-07T15:34:59.625Z,7.30
2017-11-07T15:37:32.825Z,7.20
2017-11-07T15:40:06.483Z,7.20
2017-11-07T15:42:39.194Z,7.20
2017-11-07T15:45:11.874Z,7.20
2017-11-07T15:47:44.361Z,7.20
2017-11-07T15:50:16.837Z,7.20
2017-11-07T15:52:50.255Z,7.20
2017-11-07T15:55:22.870Z,7.20
2017-11-07T15:57:55.328Z,7.20
2017-11-07T16:00:27.725Z,7.20
2017-11-07T16:03:00.135Z,7.20
2017-11-07T16:05:32.868Z,7.20
2017-11-07T16:08:06.442Z,7.20
2017-11-07T16:10:39.778Z,7.20
2017-11-07T16:13:12.537Z,7.30
2017-11-07T16:15:45.382Z,7.30
2017-11-07T16:18:18.687Z,7.30
2017-11-07T16:20:51.883Z,7.30
2017-11-07T16:23:25.332Z,7.30
2017-11-07T16:25:58.361Z,7.30
2017-11-07T16:28:32.247Z,7.40
2017-11-07T16:31:05.160Z,7.40
2017-11-07T16:33:39.226Z,7.40
2017-11-07T16:36:12.686Z,7.40
2017-11-07T16:38:45.340Z,7.40
2017-11-07T16:41:19.481Z,7.40
2017-11-07T16:43:52.165Z,7.40
2017-11-07T16:46:24.672Z,7.40
2017-11-07T16:48:57.985Z,7.40
2017-11-07T16:51:31.037Z,7.50
2017-11-07T16:54:04.049Z,7.50
2017-11-07T16:56:36.557Z,7.50
2017-11-07T16:59:09.619Z,7.50
2017-11-07T17:01:42.518Z,7.50
2017-11-07T17:04:15.443Z,7.50
2017-11-07T17:06:48.087Z,7.60
2017-11-07T17:09:20.550Z,7.60
2017-11-07T17:11:53.147Z,7.60
2017-11-07T17:14:28.318Z,7.60
2017-11-07T17:17:01.000Z,7.60
2017-11-07T17:19:33.495Z,7.60
2017-11-07T17:22:05.990Z,7.60
2017-11-07T17:24:38.690Z,7.60
2017-11-07T17:27:12.066Z,7.70
2017-11-07T17:29:44.782Z,7.60
2017-11-07T17:32:17.405Z,7.70
2017-11-07T17:34:50.760Z,7.70
2017-11-07T17:37:23.491Z,7.70
2017-11-07T17:39:56.788Z,7.70
2017-11-07T17:42:30.166Z,7.70
2017-11-07T17:45:03.561Z,7.70
2017-11-07T17:47:37.299Z,7.70
2017-11-07T17:50:12.405Z,7.70
2017-11-07T17:52:45.270Z,7.70
2017-11-07T17:55:18.582Z,7.70
2017-11-07T17:57:51.163Z,7.70
2017-11-07T18:00:24.055Z,7.70
2017-11-07T18:02:57.986Z,7.70
2017-11-07T18:05:31.016Z,7.70
2017-11-07T18:08:03.747Z,7.70
2017-11-07T18:10:37.413Z,7.80
2017-11-07T18:13:10.316Z,7.80
2017-11-07T18:15:43.399Z,7.80
2017-11-07T18:18:16.994Z,7.80
2017-11-07T18:20:50.430Z,7.80
2017-11-07T18:23:23.495Z,7.80
2017-11-07T18:25:57.563Z,7.80
2017-11-07T18:28:30.278Z,7.80
2017-11-07T18:31:03.166Z,7.80
2017-11-07T18:33:36.544Z,7.70
2017-11-07T18:36:09.732Z,7.70
2017-11-07T18:38:43.589Z,7.70
2017-11-07T18:41:17.427Z,7.70
2017-11-07T18:43:51.846Z,7.80
2017-11-07T18:46:26.820Z,7.70
2017-11-07T18:49:00.716Z,7.70
2017-11-07T18:51:35.155Z,7.60
2017-11-07T18:54:09.669Z,7.60
2017-11-07T18:56:45.612Z,7.60
2017-11-07T18:59:20.245Z,7.70
2017-11-07T19:01:54.283Z,7.70
2017-11-07T19:04:29.556Z,7.80
2017-11-07T19:07:03.978Z,7.70
2017-11-07T19:09:38.884Z,7.80
2017-11-07T19:12:14.061Z,7.80
2017-11-07T19:14:48.365Z,7.80
2017-11-07T19:17:23.296Z,7.80
2017-11-07T19:19:58.767Z,7.80
2017-11-07T19:22:33.556Z,7.80
2017-11-07T19:25:07.682Z,7.80
2017-11-07T19:28:01.747Z,7.80
2017-11-07T19:30:37.079Z,7.80
2017-11-07T19:33:11.447Z,7.80
2017-11-07T19:35:46.058Z,7.80
2017-11-07T19:41:25.828Z,7.80
2017-11-07T19:44:00.159Z,7.80
2017-11-07T19:46:34.844Z,7.80
2017-11-07T19:49:13.468Z,7.70
2017-11-07T19:51:48.641Z,7.70
2017-11-07T19:54:22.820Z,7.70
2017-11-07T19:56:58.193Z,7.70
2017-11-07T19:59:32.749Z,7.70
2017-11-07T20:02:07.464Z,7.70
2017-11-07T20:04:41.923Z,7.70
2017-11-07T20:07:17.766Z,7.70
2017-11-07T20:09:53.733Z,7.70
2017-11-07T20:12:28.494Z,7.70
2017-11-07T20:15:02.723Z,7.70
2017-11-07T20:17:38.112Z,7.60
2017-11-07T20:20:14.800Z,7.60
2017-11-07T20:22:49.600Z,7.60
2017-11-07T20:25:23.675Z,7.50
2017-11-07T20:27:58.623Z,7.60
2017-11-07T20:30:33.196Z,7.50
2017-11-07T20:33:07.735Z,7.50
2017-11-07T20:35:43.019Z,7.40
2017-11-07T20:38:17.447Z,7.40
2017-11-07T20:40:51.940Z,7.40
2017-11-07T20:43:27.004Z,7.40
2017-11-07T20:46:02.120Z,7.30
2017-11-07T20:48:36.220Z,7.30
2017-11-07T20:51:10.770Z,7.30
2017-11-07T20:53:46.609Z,7.30
2017-11-07T20:56:21.001Z,7.30
2017-11-07T20:58:56.796Z,7.30
2017-11-07T21:01:31.113Z,7.30
2017-11-07T21:04:06.752Z,7.20
2017-11-07T21:06:41.554Z,7.20
2017-11-07T21:09:16.568Z,7.20
2017-11-07T21:11:50.889Z,7.20
2017-11-07T21:14:25.709Z,7.20
2017-11-07T21:17:00.851Z,7.20
2017-11-07T21:19:36.526Z,7.20
2017-11-07T21:22:11.099Z,7.20
2017-11-07T21:24:46.600Z,7.10
2017-11-07T21:27:21.164Z,7.10
2017-11-07T21:29:55.714Z,7.10
2017-11-07T21:32:30.104Z,7.10
2017-11-07T21:35:05.703Z,7.10
2017-11-07T21:37:39.795Z,7.10
2017-11-07T21:40:15.208Z,7.10
2017-11-07T21:42:50.079Z,7.10
2017-11-07T21:45:24.893Z,7.10
2017-11-07T21:47:59.081Z,7.10
2017-11-07T21:50:33.863Z,7.10
2017-11-07T21:53:09.001Z,7.10
2017-11-07T21:55:42.681Z,7.10
2017-11-07T21:58:17.329Z,7.10
2017-11-07T22:00:52.160Z,7.10
2017-11-07T22:03:25.147Z,7.10
2017-11-07T22:05:58.852Z,7.10
2017-11-07T22:08:32.008Z,7.10
2017-11-07T22:11:04.456Z,7.10
2017-11-07T22:13:37.840Z,7.10
2017-11-07T22:16:10.430Z,7.10
2017-11-07T22:18:42.784Z,7.10
2017-11-07T22:21:16.554Z,7.10
2017-11-07T22:23:50.590Z,7.10
2017-11-07T22:26:23.269Z,7.10
2017-11-07T22:28:55.804Z,7.10
2017-11-07T22:31:29.057Z,7.10
2017-11-07T22:34:01.826Z,7.10
2017-11-07T22:36:34.281Z,7.10
2017-11-07T22:39:06.683Z,7.10
2017-11-07T22:41:39.232Z,7.10
2017-11-07T22:44:13.354Z,7.10
2017-11-07T22:46:46.158Z,7.10
2017-11-07T22:49:18.989Z,7.10
2017-11-07T22:51:51.745Z,7.10
2017-11-07T22:54:27.454Z,7.10
2017-11-07T22:57:00.460Z,7.10
2017-11-07T22:59:33.743Z,7.10
2017-11-07T23:02:06.362Z,7.10
2017-11-07T23:04:40.617Z,7.10
2017-11-07T23:07:13.560Z,7.10
2017-11-07T23:09:45.939Z,7.10
2017-11-07T23:12:18.478Z,7.10
2017-11-07T23:14:50.995Z,7.10
2017-11-07T23:17:23.590Z,7.10
2017-11-07T23:19:56.770Z,7.10
2017-11-07T23:22:30.370Z,7.10
2017-11-07T23:25:03.060Z,7.10
2017-11-07T23:27:36.464Z,7.10
2017-11-07T23:30:09.666Z,7.10
2017-11-07T23:32:42.389Z,7.10
2017-11-07T23:35:15.782Z,7.10
2017-11-07T23:37:48.544Z,7.10
2017-11-07T23:40:21.879Z,7.20
2017-11-07T23:42:55.386Z,7.20
2017-11-07T23:45:28.207Z,7.10
2017-11-07T23:48:00.776Z,7.20
2017-11-07T23:50:33.232Z,7.20
2017-11-07T23:53:06.501Z,7.20
2017-11-07T23:55:39.288Z,7.10
2017-11-07T23:58:11.951Z,7.10
